createdAt,value
2019-04-03T00:00:56.280Z,996.42
2019-04-03T00:01:56.268Z,996.39
2019-04-03T00:02:56.274Z,996.42
2019-04-03T00:03:56.359Z,996.43
2019-04-03T00:04:56.247Z,996.46
2019-04-03T00:05:56.432Z,996.47
2019-04-03T00:06:56.238Z,996.47
2019-04-03T00:07:56.205Z,996.50
2019-04-03T00:08:56.221Z,996.49
2019-04-03T00:09:56.283Z,996.48
2019-04-03T00:10:56.167Z,996.48
2019-04-03T00:11:56.158Z,996.49
2019-04-03T00:12:56.158Z,996.47
2019-04-03T00:13:56.146Z,996.50
2019-04-03T00:14:56.235Z,996.50
2019-04-03T00:15:56.115Z,996.51
2019-04-03T00:16:56.281Z,996.53
2019-04-03T00:17:56.124Z,996.54
2019-04-03T00:18:56.097Z,996.50
2019-04-03T00:19:56.074Z,996.48
2019-04-03T00:20:56.062Z,996.51
2019-04-03T00:21:56.047Z,996.52
2019-04-03T00:22:56.038Z,996.52
2019-04-03T00:23:56.040Z,996.50
2019-04-03T00:24:56.018Z,996.53
2019-04-03T00:25:56.003Z,996.51
2019-04-03T00:26:55.994Z,996.55
2019-04-03T00:27:55.984Z,996.55
2019-04-03T00:28:55.993Z,996.61
2019-04-03T00:29:55.992Z,996.57
2019-04-03T00:30:55.951Z,996.60
2019-04-03T00:31:55.938Z,996.57
2019-04-03T00:32:55.955Z,996.56
2019-04-03T00:33:55.918Z,996.54
2019-04-03T00:34:55.968Z,996.53
2019-04-03T00:35:55.899Z,996.59
2019-04-03T00:36:55.929Z,996.60
2019-04-03T00:37:55.896Z,996.57
2019-04-03T00:38:55.866Z,996.57
2019-04-03T00:39:55.848Z,996.58
2019-04-03T00:40:55.858Z,996.59
2019-04-03T00:41:55.845Z,996.59
2019-04-03T00:42:55.953Z,996.64
2019-04-03T00:43:55.806Z,996.63
2019-04-03T00:44:55.798Z,996.59
2019-04-03T00:45:55.776Z,996.67
2019-04-03T00:46:56.167Z,996.61
2019-04-03T00:47:56.142Z,996.62
2019-04-03T00:48:56.296Z,996.59
2019-04-03T00:49:57.027Z,996.63
2019-04-03T00:50:57.262Z,996.53
2019-04-03T00:51:57.374Z,996.54
2019-04-03T00:52:57.386Z,996.50
2019-04-03T00:53:57.402Z,996.56
2019-04-03T00:54:56.594Z,996.60
2019-04-03T00:55:56.480Z,996.64
2019-04-03T00:56:56.513Z,996.60
2019-04-03T00:57:56.495Z,996.55
2019-04-03T00:58:55.969Z,996.65
2019-04-03T00:59:56.464Z,996.66
2019-04-03T01:00:56.339Z,996.66
2019-04-03T01:01:56.715Z,996.66
2019-04-03T01:02:58.165Z,996.61
2019-04-03T01:03:58.111Z,996.61
2019-04-03T01:04:58.002Z,996.58
2019-04-03T01:05:58.019Z,996.57
2019-04-03T01:06:58.170Z,996.55
2019-04-03T01:07:55.531Z,996.58
2019-04-03T01:08:55.520Z,996.59
2019-04-03T01:09:55.522Z,996.64
2019-04-03T01:10:55.499Z,996.59
2019-04-03T01:11:55.599Z,996.63
2019-04-03T01:12:55.479Z,996.65
2019-04-03T01:13:55.657Z,996.62
2019-04-03T01:14:55.457Z,996.62
2019-04-03T01:15:55.557Z,996.62
2019-04-03T01:16:55.430Z,996.62
2019-04-03T01:17:55.615Z,996.59
2019-04-03T01:18:55.410Z,996.57
2019-04-03T01:19:55.396Z,996.63
2019-04-03T01:20:55.521Z,996.59
2019-04-03T01:21:55.381Z,996.55
2019-04-03T01:22:55.371Z,996.57
2019-04-03T01:23:55.364Z,996.55
2019-04-03T01:24:55.342Z,996.52
2019-04-03T01:25:55.328Z,996.53
2019-04-03T01:26:55.439Z,996.50
2019-04-03T01:27:55.376Z,996.54
2019-04-03T01:28:55.319Z,996.56
2019-04-03T01:29:55.289Z,996.51
2019-04-03T01:30:55.278Z,996.55
2019-04-03T01:31:55.264Z,996.53
2019-04-03T01:32:55.251Z,996.42
2019-04-03T01:33:55.397Z,996.45
2019-04-03T01:34:55.258Z,996.43
2019-04-03T01:35:55.218Z,996.48
2019-04-03T01:36:55.210Z,996.50
2019-04-03T01:37:55.307Z,996.56
2019-04-03T01:38:55.184Z,996.50
2019-04-03T01:39:55.199Z,996.48
2019-04-03T01:40:55.167Z,996.50
2019-04-03T01:41:55.180Z,996.52
2019-04-03T01:42:55.138Z,996.49
2019-04-03T01:43:55.285Z,996.49
2019-04-03T01:44:55.727Z,996.49
2019-04-03T01:45:56.971Z,996.47
2019-04-03T01:46:57.301Z,996.45
2019-04-03T01:47:57.425Z,996.44
2019-04-03T01:48:55.072Z,996.39
2019-04-03T01:49:55.160Z,996.36
2019-04-03T01:50:55.062Z,996.38
2019-04-03T01:51:55.148Z,996.41
2019-04-03T01:52:55.031Z,996.46
2019-04-03T01:53:55.185Z,996.45
2019-04-03T01:54:55.005Z,996.52
2019-04-03T01:55:55.095Z,996.46
2019-04-03T01:56:54.982Z,996.47
2019-04-03T01:57:54.997Z,996.50
2019-04-03T01:58:54.960Z,996.56
2019-04-03T01:59:54.954Z,996.57
2019-04-03T02:01:48.598Z,996.58
2019-04-03T02:02:48.486Z,996.52
2019-04-03T02:03:48.454Z,996.61
2019-04-03T02:04:48.448Z,996.60
2019-04-03T02:05:48.462Z,996.67
2019-04-03T02:06:48.420Z,996.62
2019-04-03T02:07:48.449Z,996.61
2019-04-03T02:08:48.417Z,996.59
2019-04-03T02:09:48.393Z,996.64
2019-04-03T02:10:49.073Z,996.62
2019-04-03T02:11:49.380Z,996.58
2019-04-03T02:12:50.608Z,996.62
2019-04-03T02:13:50.974Z,996.64
2019-04-03T02:14:50.988Z,996.62
2019-04-03T02:15:48.316Z,996.60
2019-04-03T02:16:48.324Z,996.63
2019-04-03T02:17:48.301Z,996.67
2019-04-03T02:18:48.282Z,996.69
2019-04-03T02:19:48.288Z,996.72
2019-04-03T02:20:48.323Z,996.66
2019-04-03T02:21:48.286Z,996.70
2019-04-03T02:22:48.241Z,996.68
2019-04-03T02:23:48.258Z,996.69
2019-04-03T02:24:48.213Z,996.64
2019-04-03T02:25:48.249Z,996.67
2019-04-03T02:26:48.220Z,996.60
2019-04-03T02:27:48.182Z,996.63
2019-04-03T02:28:48.175Z,996.61
2019-04-03T02:29:48.158Z,996.65
2019-04-03T02:30:48.149Z,996.64
2019-04-03T02:31:51.746Z,996.62
2019-04-03T02:32:48.467Z,996.66
2019-04-03T02:33:48.391Z,996.66
2019-04-03T02:34:48.115Z,996.69
2019-04-03T02:35:48.109Z,996.73
2019-04-03T02:36:48.082Z,996.70
2019-04-03T02:37:49.618Z,996.71
2019-04-03T02:38:48.057Z,996.72
2019-04-03T02:39:48.047Z,996.70
2019-04-03T02:40:48.223Z,996.69
2019-04-03T02:41:48.042Z,996.64
2019-04-03T02:42:48.032Z,996.61
2019-04-03T02:43:48.334Z,996.63
2019-04-03T02:44:48.372Z,996.57
2019-04-03T02:45:48.274Z,996.58
2019-04-03T02:46:47.967Z,996.57
2019-04-03T02:47:47.955Z,996.58
2019-04-03T02:48:47.957Z,996.56
2019-04-03T02:49:47.945Z,996.61
2019-04-03T02:50:48.425Z,996.59
2019-04-03T02:51:51.918Z,996.58
2019-04-03T02:52:48.901Z,996.57
2019-04-03T02:53:47.919Z,996.53
2019-04-03T02:54:48.127Z,996.60
2019-04-03T02:55:47.879Z,996.56
2019-04-03T02:56:48.104Z,996.55
2019-04-03T02:57:49.326Z,996.58
2019-04-03T02:58:48.146Z,996.55
2019-04-03T02:59:47.820Z,996.58
2019-04-03T03:00:48.227Z,996.57
2019-04-03T03:01:47.802Z,996.57
2019-04-03T03:02:47.787Z,996.52
2019-04-03T03:03:49.544Z,996.52
2019-04-03T03:04:47.769Z,996.51
2019-04-03T03:05:47.758Z,996.46
2019-04-03T03:06:48.065Z,996.48
2019-04-03T03:07:47.747Z,996.51
2019-04-03T03:08:47.754Z,996.57
2019-04-03T03:09:47.920Z,996.60
2019-04-03T03:10:50.918Z,996.63
2019-04-03T03:11:47.696Z,996.64
2019-04-03T03:12:47.690Z,996.66
2019-04-03T03:13:47.846Z,996.68
2019-04-03T03:14:47.650Z,996.76
2019-04-03T03:15:47.656Z,996.80
2019-04-03T03:16:50.308Z,996.77
2019-04-03T03:17:47.630Z,996.82
2019-04-03T03:18:47.886Z,996.81
2019-04-03T03:19:47.598Z,996.77
2019-04-03T03:20:47.597Z,996.76
2019-04-03T03:21:47.575Z,996.71
2019-04-03T03:22:49.810Z,996.71
2019-04-03T03:23:47.575Z,996.67
2019-04-03T03:24:47.543Z,996.61
2019-04-03T03:25:47.528Z,996.61
2019-04-03T03:26:47.528Z,996.59
2019-04-03T03:27:47.514Z,996.61
2019-04-03T03:28:47.980Z,996.59
2019-04-03T03:29:47.494Z,996.60
2019-04-03T03:30:57.772Z,996.62
2019-04-03T03:32:05.754Z,996.66
2019-04-03T03:32:48.627Z,996.62
2019-04-03T03:33:47.532Z,996.63
2019-04-03T03:34:57.191Z,996.60
2019-04-03T03:35:50.418Z,996.56
2019-04-03T03:36:47.970Z,996.52
2019-04-03T03:37:47.442Z,996.50
2019-04-03T03:38:47.488Z,996.50
2019-04-03T03:39:47.488Z,996.53
2019-04-03T03:40:48.739Z,996.57
2019-04-03T03:41:47.372Z,996.59
2019-04-03T03:42:47.335Z,996.56
2019-04-03T03:43:47.348Z,996.54
2019-04-03T03:44:47.318Z,996.56
2019-04-03T03:45:51.492Z,996.63
2019-04-03T03:46:48.484Z,996.61
2019-04-03T03:47:47.282Z,996.63
2019-04-03T03:48:47.278Z,996.56
2019-04-03T03:49:49.694Z,996.57
2019-04-03T03:50:47.271Z,996.55
2019-04-03T03:51:47.235Z,996.54
2019-04-03T03:52:47.406Z,996.55
2019-04-03T03:53:47.525Z,996.52
2019-04-03T03:54:49.633Z,996.51
2019-04-03T03:55:47.203Z,996.52
2019-04-03T03:56:47.211Z,996.55
2019-04-03T03:57:47.169Z,996.52
2019-04-03T03:58:47.181Z,996.54
2019-04-03T03:59:49.476Z,996.51
2019-04-03T04:00:51.688Z,996.56
2019-04-03T04:01:48.123Z,996.58
2019-04-03T04:02:47.110Z,996.55
2019-04-03T04:03:47.115Z,996.55
2019-04-03T04:04:48.710Z,996.56
2019-04-03T04:05:47.113Z,996.51
2019-04-03T04:06:47.333Z,996.51
2019-04-03T04:07:47.053Z,996.47
2019-04-03T04:08:47.068Z,996.50
2019-04-03T04:09:49.700Z,996.47
2019-04-03T04:10:47.070Z,996.55
2019-04-03T04:11:47.019Z,996.52
2019-04-03T04:12:47.301Z,996.51
2019-04-03T04:13:48.502Z,996.57
2019-04-03T04:14:46.984Z,996.53
2019-04-03T04:15:47.026Z,996.54
2019-04-03T04:16:46.985Z,996.57
2019-04-03T04:17:50.552Z,996.60
2019-04-03T04:18:46.939Z,996.59
2019-04-03T04:19:47.073Z,996.59
2019-04-03T04:20:47.028Z,996.60
2019-04-03T04:21:47.177Z,996.63
2019-04-03T04:22:50.813Z,996.62
2019-04-03T04:23:46.881Z,996.62
2019-04-03T04:24:46.868Z,996.63
2019-04-03T04:25:46.868Z,996.63
2019-04-03T04:26:49.801Z,996.61
2019-04-03T04:27:46.837Z,996.62
2019-04-03T04:28:46.820Z,996.62
2019-04-03T04:29:46.807Z,996.64
2019-04-03T04:30:47.098Z,996.62
2019-04-03T04:31:46.881Z,996.65
2019-04-03T04:32:46.940Z,996.64
2019-04-03T04:33:47.953Z,996.62
2019-04-03T04:34:49.259Z,996.65
2019-04-03T04:35:46.739Z,996.65
2019-04-03T04:36:46.751Z,996.70
2019-04-03T04:37:46.723Z,996.69
2019-04-03T04:38:46.708Z,996.69
2019-04-03T04:39:46.752Z,996.76
2019-04-03T04:40:46.947Z,996.72
2019-04-03T04:41:46.931Z,996.79
2019-04-03T04:42:46.703Z,996.76
2019-04-03T04:43:46.688Z,996.75
2019-04-03T04:44:46.651Z,996.80
2019-04-03T04:45:46.652Z,996.80
2019-04-03T04:46:46.623Z,996.79
2019-04-03T04:47:46.834Z,996.77
2019-04-03T04:48:46.637Z,996.75
2019-04-03T04:49:46.776Z,996.77
2019-04-03T04:50:46.589Z,996.72
2019-04-03T04:51:46.574Z,996.80
2019-04-03T04:52:46.729Z,996.75
2019-04-03T04:53:46.560Z,996.69
2019-04-03T04:54:46.573Z,996.71
2019-04-03T04:55:46.527Z,996.68
2019-04-03T04:56:46.521Z,996.66
2019-04-03T04:57:46.495Z,996.62
2019-04-03T04:58:46.487Z,996.64
2019-04-03T04:59:46.526Z,996.64
2019-04-03T05:00:47.634Z,996.62
2019-04-03T05:01:47.039Z,996.66
2019-04-03T05:02:46.442Z,996.64
2019-04-03T05:03:46.427Z,996.62
2019-04-03T05:04:46.622Z,996.64
2019-04-03T05:05:46.407Z,996.63
2019-04-03T05:06:46.420Z,996.62
2019-04-03T05:07:46.399Z,996.60
2019-04-03T05:08:46.372Z,996.62
2019-04-03T05:09:46.364Z,996.64
2019-04-03T05:10:48.605Z,996.63
2019-04-03T05:11:46.340Z,996.66
2019-04-03T05:12:46.328Z,996.67
2019-04-03T05:13:46.883Z,996.64
2019-04-03T05:14:46.884Z,996.66
2019-04-03T05:15:46.294Z,996.67
2019-04-03T05:16:46.285Z,996.67
2019-04-03T05:17:46.283Z,996.67
2019-04-03T05:18:46.267Z,996.66
2019-04-03T05:19:46.801Z,996.66
2019-04-03T05:20:46.440Z,996.67
2019-04-03T05:21:46.444Z,996.67
2019-04-03T05:22:46.215Z,996.64
2019-04-03T05:23:46.208Z,996.63
2019-04-03T05:24:46.225Z,996.63
2019-04-03T05:25:46.196Z,996.59
2019-04-03T05:26:46.214Z,996.61
2019-04-03T05:27:46.190Z,996.60
2019-04-03T05:28:55.602Z,996.62
2019-04-03T05:29:47.196Z,996.57
2019-04-03T05:30:46.329Z,996.55
2019-04-03T05:31:46.205Z,996.54
2019-04-03T05:32:46.119Z,996.57
2019-04-03T05:33:46.174Z,996.56
2019-04-03T05:34:46.080Z,996.54
2019-04-03T05:35:46.645Z,996.57
2019-04-03T05:36:48.257Z,996.56
2019-04-03T05:37:46.045Z,996.61
2019-04-03T05:38:46.038Z,996.54
2019-04-03T05:39:46.030Z,996.53
2019-04-03T05:40:46.019Z,996.52
2019-04-03T05:41:46.004Z,996.56
2019-04-03T05:42:46.205Z,996.50
2019-04-03T05:43:45.991Z,996.50
2019-04-03T05:44:45.970Z,996.50
2019-04-03T05:45:45.963Z,996.56
2019-04-03T05:46:45.943Z,996.57
2019-04-03T05:47:45.945Z,996.60
2019-04-03T05:48:48.033Z,996.61
2019-04-03T05:49:46.787Z,996.65
2019-04-03T05:50:45.907Z,996.67
2019-04-03T05:51:45.898Z,996.70
2019-04-03T05:52:45.884Z,996.70
2019-04-03T05:53:45.878Z,996.73
2019-04-03T05:54:46.012Z,996.74
2019-04-03T05:55:46.054Z,996.74
2019-04-03T05:56:45.837Z,996.79
2019-04-03T05:57:46.201Z,996.82
2019-04-03T05:58:55.669Z,996.79
2019-04-03T05:59:58.642Z,996.81
2019-04-03T06:00:46.929Z,996.79
2019-04-03T06:01:46.830Z,996.77
2019-04-03T06:02:45.762Z,996.77
2019-04-03T06:03:45.908Z,996.70
2019-04-03T06:04:45.843Z,996.68
2019-04-03T06:05:45.806Z,996.69
2019-04-03T06:06:46.826Z,996.63
2019-04-03T06:07:47.065Z,996.69
2019-04-03T06:08:45.697Z,996.72
2019-04-03T06:09:45.685Z,996.71
2019-04-03T06:10:45.674Z,996.73
2019-04-03T06:11:45.681Z,996.74
2019-04-03T06:12:46.324Z,996.76
2019-04-03T06:13:47.469Z,996.75
2019-04-03T06:14:45.634Z,996.74
2019-04-03T06:15:45.620Z,996.72
2019-04-03T06:16:45.610Z,996.77
2019-04-03T06:17:45.611Z,996.76
2019-04-03T06:18:47.496Z,996.76
2019-04-03T06:19:45.571Z,996.78
2019-04-03T06:20:45.560Z,996.77
2019-04-03T06:21:46.171Z,996.74
2019-04-03T06:22:45.614Z,996.73
2019-04-03T06:23:45.538Z,996.69
2019-04-03T06:24:45.853Z,996.67
2019-04-03T06:25:45.505Z,996.68
2019-04-03T06:26:45.530Z,996.69
2019-04-03T06:27:46.417Z,996.67
2019-04-03T06:28:47.628Z,996.74
2019-04-03T06:29:45.664Z,996.74
2019-04-03T06:30:45.486Z,996.75
2019-04-03T06:31:45.443Z,996.78
2019-04-03T06:32:45.464Z,996.79
2019-04-03T06:33:45.473Z,996.83
2019-04-03T06:34:45.410Z,996.83
2019-04-03T06:35:46.138Z,996.82
2019-04-03T06:36:45.404Z,996.86
2019-04-03T06:37:45.389Z,996.84
2019-04-03T06:38:45.506Z,996.87
2019-04-03T06:39:45.687Z,996.87
2019-04-03T06:40:45.341Z,996.84
2019-04-03T06:41:45.341Z,996.87
2019-04-03T06:42:45.691Z,996.87
2019-04-03T06:43:45.304Z,996.85
2019-04-03T06:44:45.306Z,996.88
2019-04-03T06:45:45.281Z,996.88
2019-04-03T06:46:45.490Z,996.91
2019-04-03T06:47:45.483Z,996.93
2019-04-03T06:48:45.251Z,996.95
2019-04-03T06:49:45.254Z,996.98
2019-04-03T06:50:45.236Z,997.00
2019-04-03T06:51:45.211Z,996.99
2019-04-03T06:52:45.303Z,996.98
2019-04-03T06:53:45.197Z,997.01
2019-04-03T06:54:45.273Z,997.06
2019-04-03T06:55:45.335Z,997.10
2019-04-03T06:56:45.155Z,997.07
2019-04-03T06:57:45.162Z,997.08
2019-04-03T06:58:45.207Z,997.08
2019-04-03T06:59:47.872Z,997.07
2019-04-03T07:00:46.873Z,997.07
2019-04-03T07:01:45.148Z,997.11
2019-04-03T07:02:45.213Z,997.08
2019-04-03T07:03:45.095Z,997.05
2019-04-03T07:04:45.080Z,997.05
2019-04-03T07:05:45.198Z,997.04
2019-04-03T07:06:45.620Z,997.05
2019-04-03T07:07:45.061Z,997.03
2019-04-03T07:08:45.039Z,997.00
2019-04-03T07:09:45.024Z,996.97
2019-04-03T07:10:54.622Z,997.01
2019-04-03T07:11:46.004Z,996.99
2019-04-03T07:12:46.419Z,997.01
2019-04-03T07:13:44.978Z,997.00
2019-04-03T07:14:44.978Z,997.04
2019-04-03T07:15:45.180Z,997.01
2019-04-03T07:16:44.974Z,997.03
2019-04-03T07:17:44.924Z,997.04
2019-04-03T07:18:44.911Z,997.05
2019-04-03T07:19:44.922Z,997.05
2019-04-03T07:20:45.170Z,997.04
2019-04-03T07:21:44.895Z,997.07
2019-04-03T07:22:44.865Z,997.07
2019-04-03T07:23:44.860Z,997.07
2019-04-03T07:24:44.900Z,997.05
2019-04-03T07:25:44.877Z,997.09
2019-04-03T07:26:44.992Z,997.14
2019-04-03T07:27:45.084Z,997.13
2019-04-03T07:28:45.120Z,997.15
2019-04-03T07:29:45.035Z,997.16
2019-04-03T07:30:44.789Z,997.13
2019-04-03T07:31:44.920Z,997.17
2019-04-03T07:32:44.793Z,997.19
2019-04-03T07:33:44.748Z,997.19
2019-04-03T07:34:44.736Z,997.23
2019-04-03T07:35:44.719Z,997.26
2019-04-03T07:36:45.661Z,997.29
2019-04-03T07:37:44.854Z,997.33
2019-04-03T07:38:44.701Z,997.31
2019-04-03T07:39:44.929Z,997.36
2019-04-03T07:40:44.662Z,997.38
2019-04-03T07:41:44.651Z,997.40
2019-04-03T07:42:44.641Z,997.38
2019-04-03T07:43:44.765Z,997.35
2019-04-03T07:44:44.806Z,997.39
2019-04-03T07:45:44.713Z,997.41
2019-04-03T07:46:44.620Z,997.40
2019-04-03T07:47:44.588Z,997.41
2019-04-03T07:48:44.674Z,997.38
2019-04-03T07:49:44.582Z,997.39
2019-04-03T07:50:44.550Z,997.38
2019-04-03T07:51:44.586Z,997.32
2019-04-03T07:52:47.778Z,997.29
2019-04-03T07:53:44.517Z,997.26
2019-04-03T07:54:44.677Z,997.29
2019-04-03T07:55:44.503Z,997.27
2019-04-03T07:56:44.498Z,997.31
2019-04-03T07:57:44.497Z,997.24
2019-04-03T07:58:44.500Z,997.26
2019-04-03T07:59:44.450Z,997.27
2019-04-03T08:00:44.442Z,997.27
2019-04-03T08:01:44.495Z,997.28
2019-04-03T08:02:47.951Z,997.26
2019-04-03T08:03:53.326Z,997.27
2019-04-03T08:04:44.400Z,997.27
2019-04-03T08:05:44.379Z,997.27
2019-04-03T08:06:44.407Z,997.21
2019-04-03T08:07:44.385Z,997.26
2019-04-03T08:08:44.348Z,997.27
2019-04-03T08:09:44.332Z,997.22
2019-04-03T08:10:44.324Z,997.21
2019-04-03T08:11:44.386Z,997.25
2019-04-03T08:12:44.319Z,997.28
2019-04-03T08:13:44.325Z,997.25
2019-04-03T08:14:44.279Z,997.27
2019-04-03T08:15:45.098Z,997.29
2019-04-03T08:16:45.922Z,997.26
2019-04-03T08:17:44.496Z,997.28
2019-04-03T08:18:44.233Z,997.31
2019-04-03T08:19:45.732Z,997.29
2019-04-03T08:20:44.212Z,997.33
2019-04-03T08:21:44.316Z,997.31
2019-04-03T08:22:44.190Z,997.29
2019-04-03T08:23:44.182Z,997.27
2019-04-03T08:24:44.208Z,997.36
2019-04-03T08:25:47.489Z,997.34
2019-04-03T08:26:44.146Z,997.34
2019-04-03T08:27:44.137Z,997.31
2019-04-03T08:28:44.119Z,997.35
2019-04-03T08:29:44.433Z,997.33
2019-04-03T08:30:44.111Z,997.32
2019-04-03T08:31:47.800Z,997.31
2019-04-03T08:32:44.110Z,997.34
2019-04-03T08:33:44.137Z,997.31
2019-04-03T08:34:44.137Z,997.35
2019-04-03T08:35:44.191Z,997.37
2019-04-03T08:36:44.095Z,997.38
2019-04-03T08:37:44.021Z,997.37
2019-04-03T08:38:45.375Z,997.38
2019-04-03T08:39:44.041Z,997.39
2019-04-03T08:40:43.986Z,997.37
2019-04-03T08:41:44.234Z,997.40
2019-04-03T08:42:44.122Z,997.44
2019-04-03T08:43:43.951Z,997.43
2019-04-03T08:44:43.946Z,997.41
2019-04-03T08:45:44.056Z,997.41
2019-04-03T08:46:44.214Z,997.40
2019-04-03T08:47:46.174Z,997.44
2019-04-03T08:48:44.092Z,997.44
2019-04-03T08:49:44.292Z,997.45
2019-04-03T08:50:43.882Z,997.47
2019-04-03T08:51:43.879Z,997.46
2019-04-03T08:52:43.858Z,997.41
2019-04-03T08:53:43.844Z,997.47
2019-04-03T08:54:43.979Z,997.45
2019-04-03T08:55:45.829Z,997.41
2019-04-03T08:56:43.823Z,997.43
2019-04-03T08:57:45.833Z,997.44
2019-04-03T08:58:45.943Z,997.43
2019-04-03T08:59:44.015Z,997.40
2019-04-03T09:00:44.040Z,997.42
2019-04-03T09:01:43.769Z,997.38
2019-04-03T09:02:44.106Z,997.38
2019-04-03T09:03:43.917Z,997.36
2019-04-03T09:04:43.730Z,997.36
2019-04-03T09:05:43.727Z,997.37
2019-04-03T09:06:44.003Z,997.35
2019-04-03T09:07:44.095Z,997.35
2019-04-03T09:08:43.673Z,997.36
2019-04-03T09:09:43.942Z,997.35
2019-04-03T09:10:43.655Z,997.39
2019-04-03T09:11:43.666Z,997.36
2019-04-03T09:12:43.628Z,997.35
2019-04-03T09:13:43.805Z,997.32
2019-04-03T09:14:43.613Z,997.29
2019-04-03T09:15:43.595Z,997.31
2019-04-03T09:16:43.599Z,997.32
2019-04-03T09:17:43.637Z,997.28
2019-04-03T09:18:43.578Z,997.31
2019-04-03T09:19:43.760Z,997.28
2019-04-03T09:20:44.225Z,997.24
2019-04-03T09:21:44.945Z,997.23
2019-04-03T09:22:43.617Z,997.21
2019-04-03T09:23:43.510Z,997.22
2019-04-03T09:24:43.497Z,997.16
2019-04-03T09:25:43.560Z,997.12
2019-04-03T09:26:43.474Z,997.07
2019-04-03T09:27:43.481Z,997.07
2019-04-03T09:28:43.828Z,997.01
2019-04-03T09:29:45.417Z,997.06
2019-04-03T09:30:43.507Z,997.09
2019-04-03T09:31:43.420Z,997.13
2019-04-03T09:32:43.406Z,997.16
2019-04-03T09:33:43.403Z,997.24
2019-04-03T09:34:43.650Z,997.22
2019-04-03T09:35:43.430Z,997.20
2019-04-03T09:36:43.365Z,997.22
2019-04-03T09:37:45.679Z,997.24
2019-04-03T09:38:43.339Z,997.28
2019-04-03T09:39:45.282Z,997.24
2019-04-03T09:40:43.321Z,997.25
2019-04-03T09:41:43.311Z,997.17
2019-04-03T09:42:43.307Z,997.14
2019-04-03T09:43:43.295Z,997.13
2019-04-03T09:44:43.277Z,997.07
2019-04-03T09:45:43.613Z,997.06
2019-04-03T09:46:44.690Z,997.07
2019-04-03T09:47:43.255Z,997.07
2019-04-03T09:48:43.471Z,997.06
2019-04-03T09:49:44.187Z,997.09
2019-04-03T09:50:45.719Z,997.03
2019-04-03T09:51:43.239Z,996.99
2019-04-03T09:52:49.064Z,996.96
2019-04-03T09:53:44.394Z,996.88
2019-04-03T09:54:43.166Z,996.89
2019-04-03T09:55:43.446Z,996.82
2019-04-03T09:56:56.388Z,996.88
2019-04-03T09:57:44.439Z,996.97
2019-04-03T09:58:43.132Z,997.00
2019-04-03T09:59:43.108Z,997.02
2019-04-03T10:00:43.615Z,997.07
2019-04-03T10:01:43.090Z,997.09
2019-04-03T10:02:43.216Z,997.09
2019-04-03T10:03:43.084Z,997.14
2019-04-03T10:04:43.390Z,997.17
2019-04-03T10:05:43.040Z,997.15
2019-04-03T10:06:43.026Z,997.15
2019-04-03T10:07:43.023Z,997.14
2019-04-03T10:08:43.012Z,997.19
2019-04-03T10:09:44.009Z,997.26
2019-04-03T10:10:42.995Z,997.31
2019-04-03T10:11:42.971Z,997.32
2019-04-03T10:12:47.582Z,997.31
2019-04-03T10:13:43.990Z,997.24
2019-04-03T10:14:42.946Z,997.21
2019-04-03T10:15:42.934Z,997.27
2019-04-03T10:16:42.928Z,997.25
2019-04-03T10:17:43.219Z,997.22
2019-04-03T10:18:43.038Z,997.22
2019-04-03T10:19:44.749Z,997.23
2019-04-03T10:20:43.096Z,997.28
2019-04-03T10:21:43.097Z,997.31
2019-04-03T10:22:42.875Z,997.29
2019-04-03T10:23:42.843Z,997.33
2019-04-03T10:24:42.967Z,997.29
2019-04-03T10:25:42.821Z,997.27
2019-04-03T10:26:42.823Z,997.27
2019-04-03T10:27:43.620Z,997.23
2019-04-03T10:28:43.238Z,997.24
2019-04-03T10:29:42.776Z,997.23
2019-04-03T10:30:42.983Z,997.22
2019-04-03T10:31:42.764Z,997.16
2019-04-03T10:32:42.755Z,997.08
2019-04-03T10:33:43.025Z,997.00
2019-04-03T10:34:42.722Z,996.92
2019-04-03T10:35:42.701Z,996.93
2019-04-03T10:36:43.710Z,996.86
2019-04-03T10:37:45.706Z,996.82
2019-04-03T10:38:42.878Z,996.79
2019-04-03T10:39:44.387Z,996.82
2019-04-03T10:40:42.651Z,996.85
2019-04-03T10:41:42.704Z,996.85
2019-04-03T10:42:42.633Z,996.98
2019-04-03T10:43:42.628Z,996.97
2019-04-03T10:44:42.603Z,997.02
2019-04-03T10:45:42.613Z,997.04
2019-04-03T10:46:42.578Z,997.07
2019-04-03T10:47:44.617Z,997.06
2019-04-03T10:48:42.564Z,997.05
2019-04-03T10:49:42.788Z,997.12
2019-04-03T10:50:42.669Z,997.09
2019-04-03T10:51:42.687Z,997.08
2019-04-03T10:52:44.280Z,997.06
2019-04-03T10:53:42.523Z,997.00
2019-04-03T10:54:42.526Z,997.00
2019-04-03T10:55:42.583Z,996.99
2019-04-03T10:56:42.467Z,996.96
2019-04-03T10:57:42.881Z,996.97
2019-04-03T10:58:43.736Z,996.94
2019-04-03T10:59:42.438Z,996.92
2019-04-03T11:00:42.430Z,996.91
2019-04-03T11:01:42.410Z,996.86
2019-04-03T11:02:42.417Z,996.84
2019-04-03T11:03:42.387Z,996.82
2019-04-03T11:04:42.391Z,996.80
2019-04-03T11:05:42.652Z,996.76
2019-04-03T11:06:42.378Z,996.78
2019-04-03T11:07:42.347Z,996.74
2019-04-03T11:08:42.334Z,996.65
2019-04-03T11:09:42.327Z,996.74
2019-04-03T11:10:42.315Z,996.66
2019-04-03T11:11:43.481Z,996.64
2019-04-03T11:12:42.301Z,996.67
2019-04-03T11:13:42.526Z,996.60
2019-04-03T11:14:42.492Z,996.65
2019-04-03T11:15:44.705Z,996.69
2019-04-03T11:16:45.977Z,996.68
2019-04-03T11:17:42.245Z,996.66
2019-04-03T11:18:42.472Z,996.61
2019-04-03T11:19:44.216Z,996.58
2019-04-03T11:20:42.459Z,996.62
2019-04-03T11:21:44.086Z,996.64
2019-04-03T11:22:43.366Z,996.68
2019-04-03T11:23:44.786Z,996.75
2019-04-03T11:24:42.760Z,996.81
2019-04-03T11:25:42.330Z,996.82
2019-04-03T11:26:42.131Z,996.78
2019-04-03T11:27:44.510Z,996.72
2019-04-03T11:28:42.132Z,996.76
2019-04-03T11:29:42.888Z,996.75
2019-04-03T11:30:42.090Z,996.76
2019-04-03T11:31:43.127Z,996.67
2019-04-03T11:32:42.197Z,996.66
2019-04-03T11:33:44.772Z,996.58
2019-04-03T11:34:42.302Z,996.57
2019-04-03T11:35:42.150Z,996.57
2019-04-03T11:36:42.020Z,996.58
2019-04-03T11:37:42.009Z,996.60
2019-04-03T11:38:42.408Z,996.61
2019-04-03T11:39:41.998Z,996.55
2019-04-03T11:40:41.985Z,996.59
2019-04-03T11:41:41.981Z,996.55
2019-04-03T11:42:42.239Z,996.55
2019-04-03T11:43:42.054Z,996.48
2019-04-03T11:44:42.178Z,996.47
2019-04-03T11:45:41.922Z,996.46
2019-04-03T11:46:42.357Z,996.42
2019-04-03T11:47:43.248Z,996.43
2019-04-03T11:48:43.345Z,996.40
2019-04-03T11:49:41.877Z,996.34
2019-04-03T11:50:42.020Z,996.37
2019-04-03T11:51:41.854Z,996.32
2019-04-03T11:52:42.232Z,996.32
2019-04-03T11:53:44.533Z,996.28
2019-04-03T11:54:41.837Z,996.23
2019-04-03T11:55:42.702Z,996.19
2019-04-03T11:56:44.955Z,996.19
2019-04-03T11:57:42.013Z,996.21
2019-04-03T11:58:42.070Z,996.24
2019-04-03T11:59:41.766Z,996.20
2019-04-03T12:00:42.105Z,996.20
2019-04-03T12:01:42.098Z,996.18
2019-04-03T12:02:44.034Z,996.15
2019-04-03T12:03:42.302Z,996.09
2019-04-03T12:04:43.161Z,996.05
2019-04-03T12:05:41.724Z,995.95
2019-04-03T12:06:41.688Z,995.94
2019-04-03T12:07:41.709Z,995.92
2019-04-03T12:08:44.451Z,995.97
2019-04-03T12:09:41.678Z,996.03
2019-04-03T12:10:41.751Z,996.06
2019-04-03T12:11:41.644Z,996.09
2019-04-03T12:12:42.131Z,996.11
2019-04-03T12:13:44.396Z,996.07
2019-04-03T12:14:41.596Z,996.07
2019-04-03T12:15:41.589Z,996.11
2019-04-03T12:16:41.586Z,996.14
2019-04-03T12:17:41.572Z,996.17
2019-04-03T12:18:41.763Z,996.24
2019-04-03T12:19:41.560Z,996.21
2019-04-03T12:20:44.777Z,996.19
2019-04-03T12:21:41.521Z,996.24
2019-04-03T12:22:41.767Z,996.23
2019-04-03T12:23:41.500Z,996.18
2019-04-03T12:24:41.668Z,996.09
2019-04-03T12:25:41.545Z,996.03
2019-04-03T12:26:43.195Z,996.02
2019-04-03T12:27:41.527Z,996.00
2019-04-03T12:28:41.861Z,995.93
2019-04-03T12:29:41.428Z,995.93